Time;durP1;ratioP1;P1;durP2;ratioP2;P2;SDS_P1;SDS_P2;PMS_P1;PMS_P2;Temp;Humidity;BMP_temperature;BMP_pressure;BME280_temperature;BME280_humidity;BME280_pressure;Samples;Min_cycle;Max_cycle;Signal;HPM_P1;HPM_P2
2022/12/02 00:00:00;;;;;;;29.10;10.30;;;;;;;1.76;100.00;99884.11;2249028;79;21001;-58
2022/12/02 00:03:01;;;;;;;29.02;10.70;;;;;;;1.77;100.00;99881.95;2249306;79;21041;-58
2022/12/02 00:06:03;;;;;;;30.20;10.82;;;;;;;1.75;100.00;99878.50;2249016;79;21028;-58
2022/12/02 00:09:04;;;;;;;32.03;11.15;;;;;;;1.76;100.00;99878.94;2252503;79;21578;-58
2022/12/02 00:12:05;;;;;;;28.90;10.03;;;;;;;1.81;100.00;99873.72;2256056;79;21068;-58
2022/12/02 00:15:07;;;;;;;28.45;9.95;;;;;;;1.76;100.00;99869.88;2256077;79;21478;-58
2022/12/02 00:18:09;;;;;;;29.60;11.40;;;;;;;1.66;100.00;99874.27;2256100;79;21006;-58
2022/12/02 00:21:11;;;;;;;31.52;10.60;;;;;;;1.61;100.00;99878.63;2256192;79;21071;-58
2022/12/02 00:24:12;;;;;;;29.60;10.57;;;;;;;1.67;100.00;99872.11;2256537;79;21092;-58
2022/12/02 00:27:14;;;;;;;30.35;10.65;;;;;;;1.55;100.00;99867.90;2256068;79;21046;-58
2022/12/02 00:30:16;;;;;;;29.92;10.78;;;;;;;1.55;100.00;99869.19;2256191;79;21036;-58
2022/12/02 00:33:18;;;;;;;28.83;10.20;;;;;;;1.59;100.00;99870.01;2256394;79;21542;-58
2022/12/02 00:36:19;;;;;;;32.90;10.95;;;;;;;1.65;100.00;99867.81;2256209;79;21020;-58
2022/12/02 00:39:20;;;;;;;30.05;10.60;;;;;;;1.71;100.00;99869.05;2256094;79;21032;-58
2022/12/02 00:42:22;;;;;;;30.55;10.90;;;;;;;1.57;100.00;99869.18;2256151;79;21072;-58
2022/12/02 00:48:27;;;;;;;29.60;10.53;;;;;;;1.59;100.00;99866.13;2229532;79;21004;-58
2022/12/02 00:51:28;;;;;;;31.97;10.98;;;;;;;1.58;100.00;99864.44;2256294;79;21033;-58
2022/12/02 00:54:29;;;;;;;30.27;10.08;;;;;;;1.70;100.00;99861.73;2256125;79;21044;-58
2022/12/02 00:57:31;;;;;;;29.67;11.12;;;;;;;1.70;100.00;99860.44;2256429;79;21567;-58
2022/12/02 01:00:32;;;;;;;32.70;11.88;;;;;;;1.67;100.00;99859.62;2256171;79;21028;-58
2022/12/02 01:03:34;;;;;;;34.58;12.35;;;;;;;1.57;100.00;99857.54;2256586;79;21546;-58
2022/12/02 01:06:35;;;;;;;29.72;10.58;;;;;;;1.58;100.00;99863.56;2256375;79;21018;-58
2022/12/02 01:09:37;;;;;;;29.27;10.60;;;;;;;1.65;100.00;99853.17;2256210;79;21641;-58
2022/12/02 01:12:38;;;;;;;32.05;10.15;;;;;;;1.26;100.00;99853.87;2256416;79;21189;-58
2022/12/02 01:15:39;;;;;;;31.33;11.48;;;;;;;0.92;100.00;99858.38;2256237;79;21087;-58
2022/12/02 01:18:41;;;;;;;34.40;11.03;;;;;;;0.69;100.00;99851.17;2256142;79;21549;-58
2022/12/02 01:21:43;;;;;;;29.10;10.98;;;;;;;0.50;100.00;99854.27;2256404;79;21028;-58
2022/12/02 01:24:44;;;;;;;35.80;14.13;;;;;;;0.28;100.00;99853.45;2256217;79;21040;-58
2022/12/02 01:27:45;;;;;;;33.10;12.33;;;;;;;0.29;100.00;99857.77;2256388;79;21045;-59
2022/12/02 01:30:47;;;;;;;30.65;10.38;;;;;;;0.25;100.00;99856.05;2256299;79;21100;-58
2022/12/02 01:33:48;;;;;;;33.63;11.45;;;;;;;0.25;100.00;99856.05;2256422;79;21056;-59
2022/12/02 01:36:50;;;;;;;30.48;10.72;;;;;;;0.17;100.00;99848.75;2256254;79;21037;-59
2022/12/02 01:39:51;;;;;;;30.50;11.25;;;;;;;0.27;100.00;99854.31;2256508;79;21499;-58
2022/12/02 01:42:52;;;;;;;32.63;11.35;;;;;;;0.27;100.00;99843.14;2256377;79;21004;-58
2022/12/02 01:45:54;;;;;;;35.58;12.53;;;;;;;0.20;100.00;99841.00;2256253;79;21055;-58
2022/12/02 01:48:55;;;;;;;31.20;12.13;;;;;;;0.11;100.00;99845.75;2256343;79;21017;-58
2022/12/02 01:51:57;;;;;;;29.90;11.08;;;;;;;0.21;100.00;99847.04;2255894;79;20984;-58
2022/12/02 01:54:58;;;;;;;33.80;12.05;;;;;;;0.28;100.00;99832.81;2256316;79;21072;-58
2022/12/02 01:57:59;;;;;;;30.45;10.48;;;;;;;0.43;100.00;99834.91;2256149;79;21045;-58
2022/12/02 02:01:01;;;;;;;30.50;10.20;;;;;;;0.38;100.00;99832.36;2256556;79;21607;-58
2022/12/02 02:04:03;;;;;;;27.87;9.90;;;;;;;0.27;100.00;99830.23;2256232;79;21016;-58
2022/12/02 02:07:04;;;;;;;29.90;10.53;;;;;;;0.24;100.00;99830.25;2256481;79;21514;-58
2022/12/02 02:10:05;;;;;;;32.30;11.43;;;;;;;0.33;100.00;99823.75;2255944;79;21052;-58
2022/12/02 02:13:07;;;;;;;28.38;10.70;;;;;;;0.45;100.00;99821.59;2256202;79;21044;-58
2022/12/02 02:16:08;;;;;;;28.87;9.77;;;;;;;0.62;100.00;99822.81;2256318;79;21040;-58
2022/12/02 02:19:10;;;;;;;32.60;9.98;;;;;;;0.51;100.00;99817.23;2256198;79;20937;-58
2022/12/02 02:22:11;;;;;;;27.22;9.70;;;;;;;0.33;100.00;99817.30;2256465;79;21492;-58
2022/12/02 02:25:12;;;;;;;29.98;10.18;;;;;;;0.21;100.00;99811.76;2256179;79;21016;-58
2022/12/02 02:28:14;;;;;;;29.52;10.45;;;;;;;0.07;100.00;99818.27;2256310;79;21618;-58
2022/12/02 02:31:15;;;;;;;29.65;10.13;;;;;;;-0.08;100.00;99822.16;2256315;79;21024;-58
2022/12/02 02:34:17;;;;;;;29.42;11.28;;;;;;;-0.09;100.00;99819.98;2256299;79;21040;-58
2022/12/02 02:37:18;;;;;;;30.27;11.35;;;;;;;-0.21;100.00;99818.73;2256290;79;21064;-58
2022/12/02 02:40:20;;;;;;;30.40;11.33;;;;;;;-0.14;100.00;99820.45;2256193;79;21063;-58
2022/12/02 02:43:21;;;;;;;29.53;10.90;;;;;;;-0.10;100.00;99816.13;2256577;79;21071;-59
2022/12/02 02:46:22;;;;;;;28.40;9.40;;;;;;;-0.08;100.00;99816.56;2256147;79;21064;-58
2022/12/02 02:49:24;;;;;;;33.33;12.00;;;;;;;-0.06;100.00;99809.70;2256443;79;21535;-58
2022/12/02 02:52:25;;;;;;;29.67;10.78;;;;;;;-0.03;100.00;99816.13;2256191;79;21047;-58
2022/12/02 02:55:27;;;;;;;32.50;11.20;;;;;;;-0.06;100.00;99817.84;2256079;79;21641;-59
2022/12/02 02:58:28;;;;;;;31.35;10.20;;;;;;;-0.11;100.00;99810.56;2256529;79;21083;-58
2022/12/02 03:01:30;;;;;;;27.27;9.98;;;;;;;-0.10;100.00;99814.84;2256147;79;21008;-58
2022/12/02 03:04:31;;;;;;;28.62;10.18;;;;;;;-0.02;100.00;99814.40;2256308;79;21064;-59
2022/12/02 03:07:32;;;;;;;27.65;10.40;;;;;;;-0.02;100.00;99818.27;2256174;79;21056;-58
2022/12/02 03:10:34;;;;;;;29.67;9.58;;;;;;;0.04;100.00;99818.25;2250879;79;21031;-58
2022/12/02 03:13:36;;;;;;;29.27;10.30;;;;;;;0.13;100.00;99813.08;2249093;79;21009;-59
2022/12/02 03:16:37;;;;;;;26.97;9.80;;;;;;;0.13;100.00;99814.38;2249161;79;21562;-58
2022/12/02 03:19:38;;;;;;;28.98;9.68;;;;;;;0.08;100.00;99813.52;2249324;79;21016;-58
2022/12/02 03:22:40;;;;;;;29.10;9.78;;;;;;;0.01;100.00;99813.10;2248718;79;21003;-58
2022/12/02 03:25:41;;;;;;;26.55;9.28;;;;;;;0.11;100.00;99813.50;2249221;79;21041;-58
2022/12/02 03:28:43;;;;;;;29.30;10.25;;;;;;;0.23;100.00;99819.08;2249393;79;21112;-58
2022/12/02 03:31:44;;;;;;;27.30;9.60;;;;;;;0.31;100.00;99808.72;2249312;79;21048;-59
2022/12/02 03:34:46;;;;;;;27.07;9.75;;;;;;;0.23;100.00;99802.31;2249013;79;21017;-58
2022/12/02 03:37:47;;;;;;;26.73;9.68;;;;;;;0.15;100.00;99804.05;2249262;79;21546;-58
2022/12/02 03:40:49;;;;;;;28.65;9.20;;;;;;;0.17;100.00;99804.88;2249054;79;21020;-58
2022/12/02 03:43:50;;;;;;;28.10;10.00;;;;;;;0.10;100.00;99798.03;2248679;79;20984;-59
2022/12/02 03:46:51;;;;;;;27.77;10.10;;;;;;;0.14;100.00;99802.31;2249276;79;21029;-59
2022/12/02 03:49:53;;;;;;;26.97;10.00;;;;;;;0.23;100.00;99798.44;2248992;79;21132;-58
2022/12/02 03:52:54;;;;;;;28.23;10.03;;;;;;;0.30;100.00;99799.25;2249294;79;21032;-58
2022/12/02 03:55:56;;;;;;;26.50;8.80;;;;;;;0.31;100.00;99800.53;2249007;79;21060;-58
2022/12/02 03:58:57;;;;;;;27.60;9.75;;;;;;;0.43;100.00;99797.07;2248998;79;21582;-58
2022/12/02 04:01:58;;;;;;;27.22;9.90;;;;;;;0.45;100.00;99799.20;2249029;79;21037;-58
2022/12/02 04:05:02;;;;;;;27.25;9.60;;;;;;;0.59;100.00;99798.27;2249237;79;21587;-58
2022/12/02 04:08:03;;;;;;;29.50;9.80;;;;;;;0.58;100.00;99804.33;2220376;79;21519;-58
2022/12/02 04:11:05;;;;;;;29.20;9.98;;;;;;;0.56;100.00;99804.74;2248811;79;20961;-58
2022/12/02 04:14:06;;;;;;;25.75;8.90;;;;;;;0.74;100.00;99803.81;2249163;79;20961;-58
2022/12/02 04:17:08;;;;;;;27.82;9.40;;;;;;;0.68;100.00;99800.83;2249206;79;21590;-59
2022/12/02 04:20:09;;;;;;;26.95;9.13;;;;;;;0.64;100.00;99801.25;2249166;79;21025;-58
2022/12/02 04:23:10;;;;;;;23.87;7.22;;;;;;;0.73;100.00;99811.13;2249399;79;21499;-58
2022/12/02 04:26:12;;;;;;;28.55;8.45;;;;;;;0.63;100.00;99809.02;2249127;79;21025;-58
2022/12/02 04:29:14;;;;;;;26.25;7.85;;;;;;;0.49;100.00;99811.23;2248798;79;20984;-58
2022/12/02 04:32:16;;;;;;;27.30;7.90;;;;;;;0.41;100.00;99809.11;2249089;79;21049;-59
2022/12/02 04:35:17;;;;;;;23.40;7.90;;;;;;;0.41;100.00;99808.27;2249100;79;21103;-58
2022/12/02 04:38:18;;;;;;;27.10;8.40;;;;;;;0.25;100.00;99808.75;2249501;79;21095;-59
2022/12/02 04:41:20;;;;;;;24.95;7.70;;;;;;;0.07;100.00;99802.79;2249368;79;21033;-58
2022/12/02 04:44:21;;;;;;;24.97;8.37;;;;;;;-0.05;100.00;99807.52;2249589;79;21576;-59
2022/12/02 04:47:23;;;;;;;27.65;8.53;;;;;;;0.04;100.00;99807.08;2249274;79;21013;-59
2022/12/02 04:50:24;;;;;;;27.02;8.63;;;;;;;-0.05;100.00;99802.80;2249358;79;21551;-58
2022/12/02 04:53:26;;;;;;;27.82;9.30;;;;;;;-0.05;100.00;99798.49;2249641;79;20984;-58
2022/12/02 04:56:27;;;;;;;28.83;9.35;;;;;;;0.12;100.00;99795.87;2249143;79;21029;-58
2022/12/02 04:59:29;;;;;;;29.32;9.78;;;;;;;0.31;100.00;99796.66;2249215;79;21503;-58
2022/12/02 05:02:30;;;;;;;29.02;9.18;;;;;;;0.41;100.00;99796.64;2249329;79;21000;-58
2022/12/02 05:05:32;;;;;;;28.83;9.33;;;;;;;0.46;100.00;99797.47;2249326;79;21120;-59
2022/12/02 05:08:33;;;;;;;30.68;9.28;;;;;;;0.36;100.00;99795.80;2249365;79;21080;-58
2022/12/02 05:11:35;;;;;;;26.07;8.18;;;;;;;0.35;100.00;99792.36;2255021;79;21071;-58
2022/12/02 05:14:36;;;;;;;28.07;9.28;;;;;;;0.42;100.00;99796.64;2256362;79;21037;-58
2022/12/02 05:17:37;;;;;;;28.25;8.60;;;;;;;0.59;100.00;99792.69;2256241;79;21036;-58
2022/12/02 05:20:39;;;;;;;26.02;7.92;;;;;;;0.60;100.00;99799.55;2256747;79;21512;-58
2022/12/02 05:23:41;;;;;;;27.73;8.98;;;;;;;0.40;100.00;99798.80;2256271;79;21027;-58
2022/12/02 05:26:42;;;;;;;28.70;8.63;;;;;;;0.27;100.00;99796.25;2256209;79;21004;-58
2022/12/02 05:29:43;;;;;;;26.75;9.25;;;;;;;0.28;100.00;99801.84;2256395;79;21555;-58
2022/12/02 05:32:45;;;;;;;34.13;12.27;;;;;;;0.20;100.00;99794.99;2256546;79;21044;-58
2022/12/02 05:35:46;;;;;;;29.82;10.20;;;;;;;0.31;100.00;99792.80;2256650;79;21087;-59
2022/12/02 05:38:48;;;;;;;31.33;10.82;;;;;;;0.21;100.00;99794.14;2256248;79;21052;-59
2022/12/02 05:41:49;;;;;;;30.52;9.90;;;;;;;0.03;100.00;99795.03;2256217;79;21020;-59
2022/12/02 05:44:51;;;;;;;29.00;11.05;;;;;;;-0.01;100.00;99792.91;2256364;79;21060;-58
2022/12/02 05:47:52;;;;;;;32.50;11.15;;;;;;;0.06;100.00;99789.45;2256251;79;21029;-58
2022/12/02 05:50:53;;;;;;;28.15;9.95;;;;;;;-0.05;100.00;99797.64;2256348;79;21028;-58
2022/12/02 05:53:55;;;;;;;27.98;9.68;;;;;;;-0.16;100.00;99796.80;2256215;79;21013;-58
2022/12/02 05:56:56;;;;;;;26.85;8.95;;;;;;;-0.05;100.00;99797.20;2256468;79;21617;-58
2022/12/02 05:59:58;;;;;;;30.35;9.78;;;;;;;-0.08;100.00;99797.66;2256341;79;21017;-58
2022/12/02 06:02:59;;;;;;;27.30;9.00;;;;;;;-0.12;100.00;99794.66;2256214;79;21028;-58
2022/12/02 06:06:01;;;;;;;30.20;11.40;;;;;;;-0.15;100.00;99803.25;2256219;79;21084;-58
2022/12/02 06:09:02;;;;;;;31.52;8.85;;;;;;;-0.24;100.00;99801.55;2256256;79;21012;-59
2022/12/02 06:12:04;;;;;;;26.33;7.95;;;;;;;-0.26;100.00;99801.11;2255969;79;21060;-58
2022/12/02 06:15:05;;;;;;;25.93;8.77;;;;;;;-0.30;100.00;99800.69;2256457;79;21052;-58
2022/12/02 06:18:07;;;;;;;26.73;8.43;;;;;;;-0.35;100.00;99803.27;2256433;79;21581;-58
2022/12/02 06:21:08;;;;;;;28.60;9.65;;;;;;;-0.30;100.00;99810.59;2256237;79;21044;-58
2022/12/02 06:24:09;;;;;;;30.35;11.25;;;;;;;-0.33;100.00;99809.30;2256407;79;21504;-58
2022/12/02 06:27:11;;;;;;;27.10;9.30;;;;;;;-0.43;100.00;99815.30;2256391;79;21064;-58
2022/12/02 06:30:12;;;;;;;25.50;8.68;;;;;;;-0.54;100.00;99812.74;2256186;79;21511;-58
2022/12/02 06:33:14;;;;;;;27.82;9.68;;;;;;;-0.63;100.00;99815.30;2256087;79;21064;-58
2022/12/02 06:36:15;;;;;;;28.52;10.20;;;;;;;-0.61;100.00;99820.05;2256170;79;21027;-59
2022/12/02 06:39:17;;;;;;;27.32;9.25;;;;;;;-0.53;100.00;99823.05;2256432;79;21104;-58
2022/12/02 06:42:18;;;;;;;26.57;8.60;;;;;;;-0.40;100.00;99820.48;2256200;79;21065;-59
2022/12/02 06:45:20;;;;;;;25.57;8.60;;;;;;;-0.39;100.00;99815.32;2256580;79;21001;-58
2022/12/02 06:48:21;;;;;;;26.70;8.55;;;;;;;-0.29;100.00;99825.61;2256215;79;21017;-59
2022/12/02 06:51:23;;;;;;;32.63;11.28;;;;;;;-0.32;100.00;99825.18;2256456;79;21016;-59
2022/12/02 06:54:24;;;;;;;28.42;8.45;;;;;;;-0.48;100.00;99825.62;2256133;79;21012;-58
2022/12/02 06:57:26;;;;;;;29.87;10.53;;;;;;;-0.60;100.00;99827.77;2256530;79;21519;-58
2022/12/02 07:00:27;;;;;;;29.00;9.80;;;;;;;-0.63;100.00;99827.77;2256331;79;21087;-58
2022/12/02 07:03:29;;;;;;;28.90;9.70;;;;;;;-0.63;100.00;99834.63;2256204;79;21087;-58
2022/12/02 07:06:30;;;;;;;36.03;12.80;;;;;;;-0.67;100.00;99832.93;2256541;79;21028;-59
2022/12/02 07:09:32;;;;;;;33.50;11.85;;;;;;;-0.70;100.00;99826.90;2256076;79;21743;-59
2022/12/02 07:12:34;;;;;;;34.15;12.65;;;;;;;-0.70;100.00;99835.92;2249202;79;21029;-58
2022/12/02 07:15:35;;;;;;;31.35;10.80;;;;;;;-0.70;100.00;99837.20;2249049;79;21072;-59
2022/12/02 07:18:39;;;;;;;31.05;11.22;;;;;;;-0.69;100.00;99832.91;2249298;79;21112;-58
2022/12/02 07:21:40;;;;;;;30.40;11.65;;;;;;;-0.71;100.00;99830.33;2249335;79;21036;-58
2022/12/02 07:24:41;;;;;;;28.40;8.08;;;;;;;-0.58;100.00;99836.35;2249019;79;21008;-58
2022/12/02 07:27:43;;;;;;;27.98;8.63;;;;;;;-0.37;100.00;99837.23;2249359;79;21507;-59
2022/12/02 07:30:44;;;;;;;26.90;8.78;;;;;;;-0.42;100.00;99842.36;2248751;79;21004;-58
2022/12/02 07:33:46;;;;;;;30.05;9.28;;;;;;;-0.50;100.00;99841.94;2249019;79;21507;-59
2022/12/02 07:36:47;;;;;;;29.87;9.20;;;;;;;-0.39;100.00;99841.10;2249141;79;21064;-58
2022/12/02 07:39:49;;;;;;;31.20;9.48;;;;;;;-0.45;100.00;99842.38;2249008;79;20993;-58
2022/12/02 07:42:51;;;;;;;25.05;8.30;;;;;;;-0.51;100.00;99847.53;2249375;79;21032;-58
2022/12/02 07:45:53;;;;;;;29.80;9.03;;;;;;;-0.50;100.00;99845.39;2249319;79;21112;-59
2022/12/02 07:48:54;;;;;;;32.90;11.47;;;;;;;-0.54;100.00;99844.95;2249456;79;21048;-58
2022/12/02 07:51:57;;;;;;;26.35;8.83;;;;;;;-0.52;100.00;99853.53;2248925;79;21123;-59
2022/12/02 07:55:00;;;;;;;26.13;7.33;;;;;;;-0.52;100.00;99852.25;2249546;79;21302;-58
2022/12/02 07:58:01;;;;;;;24.15;7.20;;;;;;;-0.51;100.00;99852.69;2249207;79;21556;-59
2022/12/02 08:01:03;;;;;;;24.52;7.37;;;;;;;-0.60;100.00;99852.25;2249339;79;21041;-59
2022/12/02 08:04:04;;;;;;;27.53;8.77;;;;;;;-0.63;100.00;99852.26;2249357;79;21508;-58
2022/12/02 08:07:06;;;;;;;31.97;11.20;;;;;;;-0.65;100.00;99853.95;2249020;79;21233;-59
2022/12/02 08:10:07;;;;;;;24.05;7.30;;;;;;;-0.73;100.00;99844.94;2248927;79;21158;-58
2022/12/02 08:13:09;;;;;;;22.50;6.50;;;;;;;-0.65;100.00;99851.38;2249082;79;21068;-58
2022/12/02 08:16:10;;;;;;;25.35;8.08;;;;;;;-0.55;100.00;99848.38;2249017;79;21028;-58
2022/12/02 08:19:12;;;;;;;25.10;7.70;;;;;;;-0.47;100.00;99844.55;2249126;79;21527;-59
2022/12/02 08:22:13;;;;;;;24.18;7.45;;;;;;;-0.41;100.00;99838.94;2249163;79;21105;-58
2022/12/02 08:25:15;;;;;;;24.72;6.87;;;;;;;-0.33;100.00;99837.66;2248947;79;21529;-59
2022/12/02 08:28:17;;;;;;;26.37;7.42;;;;;;;-0.27;100.00;99836.80;2248782;79;21091;-59
2022/12/02 08:31:18;;;;;;;27.95;9.00;;;;;;;-0.33;100.00;99835.50;2249295;79;21495;-59
2022/12/02 08:34:19;;;;;;;27.42;8.10;;;;;;;-0.31;100.00;99844.11;2249115;79;21033;-58
2022/12/02 08:37:21;;;;;;;25.90;7.90;;;;;;;-0.21;100.00;99845.38;2249355;79;21060;-58
2022/12/02 08:40:22;;;;;;;27.22;9.28;;;;;;;-0.23;100.00;99838.49;2249448;79;21029;-58
2022/12/02 08:43:24;;;;;;;24.30;7.80;;;;;;;-0.32;100.00;99842.38;2249031;79;21080;-59
2022/12/02 08:46:26;;;;;;;24.95;8.33;;;;;;;-0.36;100.00;99847.95;2249237;79;21010;-58
2022/12/02 08:49:28;;;;;;;;;;;;;;;-0.42;100.00;99856.54;2252108;79;21495;-58
2022/12/02 08:52:29;;;;;;;25.65;7.45;;;;;;;-0.38;100.00;99860.84;2248987;79;20094;-59
2022/12/02 08:55:31;;;;;;;26.30;8.33;;;;;;;-0.31;100.00;99855.71;2248986;79;21519;-58
2022/12/02 08:58:32;;;;;;;29.53;9.37;;;;;;;-0.19;100.00;99856.97;2248892;79;21031;-59
2022/12/02 09:01:34;;;;;;;27.20;8.98;;;;;;;-0.01;100.00;99852.23;2249010;79;21502;-58
2022/12/02 09:04:35;;;;;;;27.22;9.13;;;;;;;0.04;100.00;99850.94;2249141;79;21076;-59
2022/12/02 09:07:37;;;;;;;28.10;9.73;;;;;;;0.02;100.00;99847.52;2248977;79;21100;-58
2022/12/02 09:10:38;;;;;;;26.68;8.58;;;;;;;-0.05;100.00;99849.23;2249054;79;21047;-58
2022/12/02 09:13:39;;;;;;;24.35;8.03;;;;;;;-0.22;100.00;99848.80;2249015;79;21080;-58
2022/12/02 09:16:41;;;;;;;27.60;9.20;;;;;;;-0.21;100.00;99845.38;2249244;79;21028;-58
2022/12/02 09:19:42;;;;;;;26.90;9.33;;;;;;;-0.13;100.00;99849.66;2248917;79;21088;-58
2022/12/02 09:22:45;;;;;;;28.92;10.05;;;;;;;-0.15;100.00;99843.22;2249263;79;21515;-59
2022/12/02 09:25:46;;;;;;;;;;;;;;;-0.21;100.00;99838.08;2251943;79;21147;-58
2022/12/02 09:28:48;;;;;;;30.88;10.68;;;;;;;-0.16;100.00;99840.20;2249483;79;20087;-58
2022/12/02 09:31:49;;;;;;;30.52;10.50;;;;;;;-0.23;100.00;99836.80;2249299;79;21004;-58
2022/12/02 09:34:51;;;;;;;31.40;10.75;;;;;;;-0.16;100.00;99833.75;2249432;79;21009;-58
2022/12/02 09:37:52;;;;;;;32.83;10.53;;;;;;;-0.06;100.00;99837.19;2249466;79;21069;-58
2022/12/02 09:40:54;;;;;;;31.30;11.50;;;;;;;0.08;100.00;99830.28;2249563;79;21515;-58
2022/12/02 09:43:55;;;;;;;32.35;11.05;;;;;;;0.05;100.00;99832.87;2249229;79;21069;-59
2022/12/02 09:46:57;;;;;;;35.45;12.35;;;;;;;0.11;100.00;99834.14;2248738;79;21653;-58
2022/12/02 09:49:58;;;;;;;31.70;12.78;;;;;;;0.05;100.00;99835.89;2249134;79;21029;-58
2022/12/02 09:53:00;;;;;;;33.08;12.65;;;;;;;0.01;100.00;99836.31;2249281;79;21060;-58
2022/12/02 09:56:01;;;;;;;35.20;13.62;;;;;;;-0.05;100.00;99837.19;2249079;79;21014;-58
2022/12/02 09:59:02;;;;;;;31.95;12.28;;;;;;;-0.12;100.00;99835.91;2249121;79;21033;-58
2022/12/02 10:02:04;;;;;;;36.40;12.23;;;;;;;-0.20;100.00;99829.05;2249402;79;21527;-58
2022/12/02 10:05:05;;;;;;;38.30;13.68;;;;;;;-0.22;100.00;99828.61;2249104;79;21056;-58
2022/12/02 10:08:07;;;;;;;33.25;11.95;;;;;;;-0.29;100.00;99824.33;2249399;79;21550;-58
2022/12/02 10:11:08;;;;;;;40.25;14.53;;;;;;;-0.17;100.00;99823.03;2251082;79;21093;-58
2022/12/02 10:14:10;;;;;;;36.75;15.03;;;;;;;-0.08;100.00;99823.45;2255918;79;21033;-58
2022/12/02 10:17:12;;;;;;;32.42;12.00;;;;;;;-0.08;100.00;99819.58;2256179;79;21020;-58
2022/12/02 10:20:13;;;;;;;34.43;12.82;;;;;;;-0.21;100.00;99817.01;2256309;79;21065;-59
2022/12/02 10:23:15;;;;;;;34.38;13.60;;;;;;;-0.20;100.00;99824.33;2256350;79;21527;-58
2022/12/02 10:26:16;;;;;;;33.53;13.50;;;;;;;-0.04;100.00;99820.85;2256565;79;21072;-58
2022/12/02 10:29:17;;;;;;;36.33;13.72;;;;;;;0.11;100.00;99818.66;2256553;79;21546;-58
2022/12/02 10:32:19;;;;;;;37.55;14.98;;;;;;;0.19;100.00;99814.79;2256291;79;21040;-58
2022/12/02 10:35:21;;;;;;;38.83;13.90;;;;;;;0.20;100.00;99811.77;2256149;79;21523;-58
2022/12/02 10:38:22;;;;;;;37.53;15.68;;;;;;;0.21;100.00;99816.92;2256184;79;21032;-58
2022/12/02 10:41:24;;;;;;;37.58;14.60;;;;;;;-0.01;100.00;99824.71;2256091;79;21575;-58
2022/12/02 10:44:25;;;;;;;35.25;14.30;;;;;;;0.03;100.00;99823.41;2256456;79;21020;-59
2022/12/02 10:47:27;;;;;;;34.17;12.50;;;;;;;0.07;100.00;99818.27;2256230;79;21530;-58
2022/12/02 10:50:29;;;;;;;37.25;13.10;;;;;;;0.19;100.00;99826.40;2256287;79;21727;-58
2022/12/02 10:53:30;;;;;;;32.45;11.50;;;;;;;0.18;100.00;99819.52;2256146;79;21067;-58
2022/12/02 10:56:32;;;;;;;38.17;13.00;;;;;;;0.16;100.00;99815.65;2256718;79;21047;-58
2022/12/02 10:59:33;;;;;;;31.90;11.97;;;;;;;0.37;100.00;99813.00;2256208;79;21356;-58
2022/12/02 11:02:35;;;;;;;35.63;12.63;;;;;;;0.30;100.00;99811.75;2256433;79;21578;-58
2022/12/02 11:05:38;;;;;;;34.58;11.63;;;;;;;0.37;100.00;99814.30;2256400;79;21081;-58
2022/12/02 11:08:41;;;;;;;36.00;12.73;;;;;;;0.28;100.00;99810.87;2256505;79;21147;-58
2022/12/02 11:11:42;;;;;;;33.25;11.95;;;;;;;0.26;100.00;99803.99;2256190;79;21249;-58
2022/12/02 11:14:47;;;;;;;32.65;12.05;;;;;;;0.39;100.00;99802.23;2256252;79;21108;-58
2022/12/02 11:17:47;;;;;;;39.27;14.68;;;;;;;0.43;100.00;99799.66;2229336;79;21516;-58
2022/12/02 11:20:49;;;;;;;40.90;13.83;;;;;;;0.28;100.00;99799.27;2256439;79;21008;-58
2022/12/02 11:23:50;;;;;;;37.25;13.25;;;;;;;0.23;100.00;99797.15;2256230;79;21044;-58
2022/12/02 11:26:52;;;;;;;44.80;16.12;;;;;;;0.14;100.00;99796.75;2256383;79;21020;-58
2022/12/02 11:29:53;;;;;;;40.88;15.25;;;;;;;0.17;100.00;99799.72;2256131;79;21020;-58
2022/12/02 11:32:55;;;;;;;45.65;16.15;;;;;;;0.23;100.00;99798.44;2256412;79;21045;-58
2022/12/02 11:35:56;;;;;;;39.40;15.90;;;;;;;0.24;100.00;99794.13;2256077;79;21151;-58
2022/12/02 11:39:00;;;;;;;42.93;15.13;;;;;;;0.21;100.00;99796.27;2256353;79;21515;-58
2022/12/02 11:42:01;;;;;;;43.15;15.72;;;;;;;0.26;100.00;99790.68;2229506;79;20984;-59
2022/12/02 11:45:02;;;;;;;41.05;15.80;;;;;;;0.33;100.00;99792.38;2256234;79;21017;-58
2022/12/02 11:48:04;;;;;;;40.17;14.23;;;;;;;0.37;100.00;99791.91;2256561;79;21519;-58
2022/12/02 11:51:05;;;;;;;35.35;13.38;;;;;;;0.45;100.00;99786.73;2255777;79;20996;-58
2022/12/02 11:54:06;;;;;;;45.73;15.40;;;;;;;0.43;100.00;99784.58;2256080;79;21495;-58
2022/12/02 11:57:08;;;;;;;40.88;15.18;;;;;;;0.50;100.00;99782.39;2256224;79;21060;-58
2022/12/02 12:00:09;;;;;;;43.87;15.45;;;;;;;0.35;100.00;99788.49;2256136;79;21085;-59
2022/12/02 12:03:11;;;;;;;39.38;15.58;;;;;;;0.32;100.00;99782.06;2256045;79;21108;-58
2022/12/02 12:06:13;;;;;;;47.15;16.15;;;;;;;0.33;100.00;99783.34;2256301;79;21067;-59
2022/12/02 12:09:15;;;;;;;43.60;14.70;;;;;;;0.25;100.00;99777.78;2256173;79;21084;-58
2022/12/02 12:12:17;;;;;;;45.45;15.98;;;;;;;0.05;100.00;99781.27;2256143;79;21107;-58
2022/12/02 12:15:18;;;;;;;46.10;16.60;;;;;;;-0.07;100.00;99773.56;2256372;79;21012;-58
2022/12/02 12:18:20;;;;;;;47.03;17.47;;;;;;;-0.12;100.00;99772.28;2256138;79;21032;-58
2022/12/02 12:21:21;;;;;;;44.95;16.50;;;;;;;-0.06;100.00;99781.73;2256267;79;21234;-58
2022/12/02 12:24:23;;;;;;;42.00;16.52;;;;;;;-0.01;100.00;99775.70;2256084;79;21009;-58
2022/12/02 12:27:24;;;;;;;42.80;15.65;;;;;;;0.10;100.00;99776.09;2256252;79;21025;-58
2022/12/02 12:30:26;;;;;;;45.15;16.82;;;;;;;0.05;100.00;99776.12;2255871;79;21019;-58
2022/12/02 12:33:27;;;;;;;45.15;16.67;;;;;;;-0.03;100.00;99780.02;2256302;79;21574;-58
2022/12/02 12:36:28;;;;;;;44.38;15.53;;;;;;;-0.03;100.00;99777.44;2256116;79;21048;-58
2022/12/02 12:39:30;;;;;;;44.63;17.25;;;;;;;-0.01;100.00;99778.28;2256489;79;21028;-58
2022/12/02 12:42:31;;;;;;;42.70;16.27;;;;;;;-0.06;100.00;99775.28;2256606;79;21053;-58
2022/12/02 12:45:33;;;;;;;39.30;15.40;;;;;;;-0.21;100.00;99778.33;2256242;79;21076;-58
2022/12/02 12:48:34;;;;;;;39.80;16.25;;;;;;;-0.18;100.00;99775.73;2256404;79;21063;-58
2022/12/02 12:51:36;;;;;;;36.90;13.68;;;;;;;-0.26;100.00;99774.03;2256089;79;21025;-58
2022/12/02 12:54:37;;;;;;;41.55;16.12;;;;;;;-0.25;100.00;99774.03;2256331;79;21084;-58
2022/12/02 12:57:39;;;;;;;39.13;15.38;;;;;;;-0.37;100.00;99775.36;2256011;79;21020;-58
2022/12/02 13:00:40;;;;;;;43.85;15.58;;;;;;;-0.34;100.00;99776.64;2256665;79;21474;-59
2022/12/02 13:03:42;;;;;;;41.18;15.85;;;;;;;-0.30;100.00;99778.77;2256370;79;21036;-58
2022/12/02 13:06:45;;;;;;;48.95;16.23;;;;;;;-0.32;100.00;99772.77;2256550;79;21515;-58
2022/12/02 13:09:47;;;;;;;43.42;15.60;;;;;;;-0.34;100.00;99775.34;2229513;79;21519;-58
2022/12/02 13:12:48;;;;;;;198.05;65.25;;;;;;;-0.33;100.00;99769.75;2256022;79;21004;-58
2022/12/02 13:15:49;;;;;;;38.50;15.93;;;;;;;-0.34;100.00;99780.50;2256505;79;21503;-58
2022/12/02 13:18:51;;;;;;;46.05;16.95;;;;;;;-0.22;100.00;99779.63;2256480;79;21032;-58
2022/12/02 13:21:52;;;;;;;44.67;15.72;;;;;;;-0.41;100.00;99774.48;2256296;79;21041;-58
2022/12/02 13:24:54;;;;;;;39.33;15.72;;;;;;;-0.45;100.00;99776.64;2256215;79;21119;-58
2022/12/02 13:27:55;;;;;;;41.65;14.95;;;;;;;-0.45;100.00;99779.22;2256254;79;21017;-58
2022/12/02 13:30:56;;;;;;;43.60;16.60;;;;;;;-0.41;100.00;99785.24;2256386;79;21087;-59
2022/12/02 13:33:58;;;;;;;42.93;15.65;;;;;;;-0.36;100.00;99779.22;2256268;79;21052;-58
2022/12/02 13:36:59;;;;;;;43.50;16.45;;;;;;;-0.29;100.00;99784.36;2256486;79;21720;-58
2022/12/02 13:40:02;;;;;;;39.00;15.98;;;;;;;-0.42;100.00;99781.78;2256270;79;21025;-58
2022/12/02 13:43:03;;;;;;;40.83;16.25;;;;;;;-0.26;100.00;99789.09;2256472;79;21024;-59
2022/12/02 13:46:05;;;;;;;39.90;16.30;;;;;;;-0.10;100.00;99783.48;2256262;79;21016;-58
2022/12/02 13:49:07;;;;;;;45.80;18.17;;;;;;;-0.16;100.00;99789.06;2256673;79;21035;-58
2022/12/02 13:52:08;;;;;;;46.33;18.45;;;;;;;-0.27;100.00;99788.66;2256136;79;21079;-58
2022/12/02 13:55:10;;;;;;;38.25;15.43;;;;;;;-0.55;100.00;99786.13;2256302;79;21559;-58